Brownville, Louisiana
Current Conditions -  °F | °C
As of 6:53 AM on Friday 19 Dec 2014 (Local Time) from KMLU Reporting Station
Overcast Overcast  
Wind Chill: 43°   Ceiling: 2600
Heat Index: 47°   Visibility: 10mi
Dew Point: 44°   Wind: 8mph
Humidity: 90%   Direction: 60°ENE
Pressure: 30.18"   Gusts: NA
Location:  32.1631°N, 92.1971°W
Report Text: KMLU 191253Z 06007KT 10SM OVC026 08/07 A3018 RMK AO2 SLP218 T00830067
Loading
Personal Weather Stations






























Interactive Weather Map New forecast layout! Learn more

10-Day Weather Forecast

Advertisements
Track Severe Weather on mobile